Time;durP1;ratioP1;P1;durP2;ratioP2;P2;SDS_P1;SDS_P2;PMS_P1;PMS_P2;Temp;Humidity;BMP_temperature;BMP_pressure;BME280_temperature;BME280_humidity;BME280_pressure;Samples;Min_cycle;Max_cycle;Signal;HPM_P1;HPM_P2
2023/07/22 00:00:53;;;;;;;8.50;6.40;;;;;;;14.65;100.00;100274.63;5018754;28;20045;-76
2023/07/22 00:03:22;;;;;;;8.55;6.60;;;;;;;14.70;100.00;100288.50;5010035;28;20038;-76
2023/07/22 00:06:05;;;;;;;8.50;6.80;;;;;;;14.62;100.00;100280.16;5011519;28;20042;-76
2023/07/22 00:08:33;;;;;;;9.15;6.90;;;;;;;14.65;100.00;100287.94;5006772;28;20058;-76
2023/07/22 00:11:02;;;;;;;9.45;6.75;;;;;;;14.55;100.00;100273.50;5001797;28;20141;-76
2023/07/22 00:13:32;;;;;;;7.95;6.95;;;;;;;14.58;100.00;100291.13;5008400;28;20042;-77
2023/07/22 00:16:00;;;;;;;7.57;6.80;;;;;;;14.52;100.00;100279.03;5010552;28;20049;-76
2023/07/22 00:18:28;;;;;;;10.27;6.72;;;;;;;14.48;100.00;100284.69;5007370;28;20105;-75
2023/07/22 00:20:56;;;;;;;8.02;7.03;;;;;;;14.45;100.00;100291.06;5003251;28;20060;-76
2023/07/22 00:23:26;;;;;;;8.15;7.03;;;;;;;14.43;100.00;100287.63;5011446;28;20041;-76
2023/07/22 00:25:54;;;;;;;8.43;7.40;;;;;;;14.39;100.00;100289.59;5022767;28;20029;-76
2023/07/22 00:28:22;;;;;;;11.90;7.05;;;;;;;14.43;100.00;100289.44;5024308;28;20046;-77
2023/07/22 00:30:50;;;;;;;9.65;7.75;;;;;;;14.50;100.00;100290.75;5004786;28;20050;-76
2023/07/22 00:33:18;;;;;;;7.75;6.95;;;;;;;14.55;100.00;100294.84;4999310;28;20072;-76
2023/07/22 00:35:50;;;;;;;7.60;6.88;;;;;;;14.60;100.00;100291.88;5014338;28;20070;-77
2023/07/22 00:38:18;;;;;;;8.80;6.85;;;;;;;14.63;100.00;100279.22;4958501;28;20525;-74
2023/07/22 00:40:50;;;;;;;9.85;6.50;;;;;;;14.53;100.00;100280.75;5022956;28;20105;-74
2023/07/22 00:43:18;;;;;;;6.95;6.18;;;;;;;14.50;100.00;100282.75;5017004;28;20034;-74
2023/07/22 00:45:46;;;;;;;7.88;6.75;;;;;;;14.39;100.00;100276.28;5035174;28;20050;-73
2023/07/22 00:48:15;;;;;;;7.90;7.07;;;;;;;14.53;100.00;100285.22;5013417;28;20045;-74
2023/07/22 00:50:43;;;;;;;9.35;6.72;;;;;;;14.49;100.00;100279.22;5019624;28;20047;-76
2023/07/22 00:53:11;;;;;;;9.30;6.90;;;;;;;14.54;100.00;100286.94;5014133;28;20276;-77
2023/07/22 00:55:42;;;;;;;7.15;6.45;;;;;;;14.52;100.00;100283.50;5026917;28;20486;-76
2023/07/22 00:58:12;;;;;;;8.25;6.45;;;;;;;14.55;100.00;100278.00;4995753;28;20076;-77
2023/07/22 01:00:39;;;;;;;8.02;6.47;;;;;;;14.59;100.00;100285.69;5005121;28;20046;-76
2023/07/22 01:03:08;;;;;;;8.52;7.03;;;;;;;14.51;100.00;100273.81;4994230;28;20053;-76
2023/07/22 01:05:37;;;;;;;8.85;6.45;;;;;;;14.54;100.00;100269.13;5015184;28;20065;-76
2023/07/22 01:08:06;;;;;;;8.73;5.87;;;;;;;14.62;100.00;100284.66;5016101;28;20072;-76
2023/07/22 01:10:34;;;;;;;11.02;6.82;;;;;;;14.65;100.00;100285.28;5015068;28;20043;-77
2023/07/22 01:13:04;;;;;;;7.47;6.13;;;;;;;14.63;100.00;100281.03;5024838;28;20080;-76
2023/07/22 01:15:34;;;;;;;7.22;6.32;;;;;;;14.61;100.00;100283.78;4998969;28;20058;-76
2023/07/22 01:18:04;;;;;;;7.68;6.43;;;;;;;14.60;100.00;100275.88;5011678;28;20052;-77
2023/07/22 01:20:32;;;;;;;7.45;6.28;;;;;;;14.59;100.00;100274.19;4997996;28;20073;-75
2023/07/22 01:23:03;;;;;;;7.95;5.75;;;;;;;14.54;100.00;100258.47;5029795;28;20070;-76
2023/07/22 01:25:31;;;;;;;;;;;;;;;14.68;100.00;100273.56;4997252;28;20110;-74
2023/07/22 01:27:59;;;;;;;10.80;6.75;;;;;;;14.54;100.00;100261.16;5027798;28;19985;-75
2023/07/22 01:30:28;;;;;;;8.23;6.07;;;;;;;14.52;100.00;100275.50;5019054;28;20068;-76
2023/07/22 01:32:56;;;;;;;10.35;6.60;;;;;;;14.46;100.00;100274.13;5036346;28;20037;-75
2023/07/22 01:35:26;;;;;;;8.18;6.28;;;;;;;14.41;100.00;100275.38;5030236;28;20050;-74
2023/07/22 01:37:56;;;;;;;8.43;6.85;;;;;;;14.37;100.00;100280.84;5029132;28;20033;-75
2023/07/22 01:40:26;;;;;;;9.02;6.55;;;;;;;14.35;100.00;100282.75;5017962;28;20073;-75
2023/07/22 01:42:54;;;;;;;;;;;;;;;14.35;100.00;100289.88;5038730;28;20041;-76
2023/07/22 01:45:22;;;;;;;7.93;6.63;;;;;;;14.27;100.00;100287.72;5023673;28;19922;-76
2023/07/22 01:47:50;;;;;;;7.85;6.55;;;;;;;14.27;100.00;100289.53;5034056;28;20054;-75
2023/07/22 01:50:18;;;;;;;7.97;7.07;;;;;;;14.28;100.00;100288.59;5010195;28;20053;-75
2023/07/22 01:52:47;;;;;;;8.00;6.68;;;;;;;14.22;100.00;100281.84;5018942;28;20050;-75
2023/07/22 01:55:15;;;;;;;8.07;7.28;;;;;;;14.16;100.00;100284.91;5017650;28;20052;-75
2023/07/22 01:57:44;;;;;;;8.90;7.38;;;;;;;14.09;100.00;100278.25;5027348;28;20053;-77
2023/07/22 02:00:15;;;;;;;11.73;7.13;;;;;;;14.05;100.00;100276.72;5002482;28;20038;-75
2023/07/22 02:02:46;;;;;;;9.48;7.22;;;;;;;14.13;100.00;100282.44;5015643;28;20050;-75
2023/07/22 02:05:16;;;;;;;9.02;6.93;;;;;;;14.10;100.00;100279.09;5000802;28;20494;-74
2023/07/22 02:07:45;;;;;;;9.02;7.40;;;;;;;14.03;100.00;100281.28;5012656;28;20068;-76
2023/07/22 02:10:14;;;;;;;9.30;7.30;;;;;;;14.04;100.00;100278.53;5016899;28;20409;-75
2023/07/22 02:12:42;;;;;;;8.90;7.78;;;;;;;13.99;100.00;100282.44;5000016;28;20054;-75
2023/07/22 02:15:11;;;;;;;8.10;7.22;;;;;;;13.96;100.00;100269.31;5014062;28;20056;-77
2023/07/22 02:17:39;;;;;;;9.23;6.88;;;;;;;14.07;100.00;100272.16;4999713;28;20134;-75
2023/07/22 02:20:09;;;;;;;8.52;6.85;;;;;;;14.03;100.00;100283.94;4971151;28;20060;-72
2023/07/22 02:22:38;;;;;;;8.43;7.22;;;;;;;13.88;100.00;100266.28;4995658;28;20053;-75
2023/07/22 02:25:10;;;;;;;9.30;7.07;;;;;;;13.84;100.00;100283.41;4998246;28;20053;-77
2023/07/22 02:27:41;;;;;;;10.50;7.50;;;;;;;13.80;100.00;100273.91;5014738;28;20046;-76
2023/07/22 02:30:13;;;;;;;8.70;7.30;;;;;;;13.70;100.00;100268.28;5008120;28;20164;-74
2023/07/22 02:32:42;;;;;;;8.43;7.47;;;;;;;13.82;100.00;100270.19;5013828;28;20065;-76
2023/07/22 02:35:11;;;;;;;9.38;7.35;;;;;;;13.93;100.00;100278.34;5009122;28;20038;-76
2023/07/22 02:37:40;;;;;;;9.82;7.13;;;;;;;13.89;100.00;100271.50;4993942;28;20045;-77
2023/07/22 02:40:11;;;;;;;9.05;7.75;;;;;;;13.84;100.00;100270.09;5005716;28;20058;-75
2023/07/22 02:42:43;;;;;;;9.77;7.93;;;;;;;13.74;100.00;100280.44;5012200;28;20061;-77
2023/07/22 02:45:13;;;;;;;9.35;8.07;;;;;;;13.53;100.00;100266.69;4993396;28;20046;-77
2023/07/22 02:47:42;;;;;;;11.25;8.30;;;;;;;13.56;100.00;100282.44;5017231;28;20034;-76
2023/07/22 02:50:11;;;;;;;10.48;7.82;;;;;;;13.52;100.00;100286.25;5001976;28;20099;-75
2023/07/22 02:52:41;;;;;;;10.90;7.47;;;;;;;13.56;100.00;100289.56;5028541;28;20042;-77
2023/07/22 02:55:11;;;;;;;12.27;8.45;;;;;;;13.56;100.00;100286.88;5020067;28;20113;-75
2023/07/22 02:57:43;;;;;;;11.02;8.48;;;;;;;13.47;100.00;100275.03;5018845;28;20045;-76
2023/07/22 03:00:17;;;;;;;14.32;9.32;;;;;;;13.54;100.00;100288.78;5002036;28;20044;-77
2023/07/22 03:02:46;;;;;;;9.98;8.90;;;;;;;13.54;100.00;100286.13;5029620;28;20121;-74
2023/07/22 03:05:14;;;;;;;12.50;9.40;;;;;;;13.46;100.00;100272.44;4996343;28;20110;-77
2023/07/22 03:07:42;;;;;;;12.60;8.98;;;;;;;13.53;100.00;100282.63;5010611;28;20216;-77
2023/07/22 03:10:10;;;;;;;10.30;8.77;;;;;;;13.30;100.00;100249.44;5004050;28;20484;-76
2023/07/22 03:12:38;;;;;;;11.82;9.15;;;;;;;13.54;100.00;100297.63;5008995;28;20042;-77
2023/07/22 03:15:08;;;;;;;13.02;8.73;;;;;;;13.48;100.00;100289.19;4996916;28;20046;-76
2023/07/22 03:17:39;;;;;;;11.35;9.05;;;;;;;13.44;100.00;100283.19;5013733;28;20034;-76
2023/07/22 03:20:13;;;;;;;10.88;8.90;;;;;;;13.49;100.00;100298.88;4987312;28;20451;-76
2023/07/22 03:22:41;;;;;;;12.43;8.52;;;;;;;13.42;100.00;100290.38;5006466;28;20046;-77
2023/07/22 03:25:10;;;;;;;12.63;9.93;;;;;;;13.44;100.00;100299.13;5013015;28;20037;-78
2023/07/22 03:27:39;;;;;;;12.15;9.82;;;;;;;13.36;100.00;100289.94;5010978;28;20524;-77
2023/07/22 03:30:08;;;;;;;14.05;9.85;;;;;;;13.41;100.00;100307.28;5008617;28;20053;-77
2023/07/22 03:32:38;;;;;;;9.88;8.73;;;;;;;13.39;100.00;100303.88;5010061;28;20092;-77
2023/07/22 03:35:08;;;;;;;12.65;9.20;;;;;;;13.34;100.00;100300.66;5007053;28;20386;-77
2023/07/22 03:37:39;;;;;;;14.07;9.52;;;;;;;13.32;100.00;100302.53;5018112;28;20054;-76
2023/07/22 03:40:11;;;;;;;12.23;9.60;;;;;;;13.29;100.00;100303.56;5014395;28;20046;-76
2023/07/22 03:42:40;;;;;;;11.00;9.27;;;;;;;13.29;100.00;100311.56;4989757;28;20055;-76
2023/07/22 03:45:10;;;;;;;11.77;10.18;;;;;;;13.25;100.00;100303.84;4997657;28;20047;-78
2023/07/22 03:47:41;;;;;;;12.27;10.15;;;;;;;13.25;100.00;100295.84;5013118;28;20516;-77
2023/07/22 03:50:09;;;;;;;14.10;9.70;;;;;;;13.27;100.00;100302.81;5013875;28;20116;-75
2023/07/22 03:52:37;;;;;;;16.38;10.02;;;;;;;13.30;100.00;100304.44;5028267;28;20046;-74
2023/07/22 03:55:06;;;;;;;11.13;9.68;;;;;;;13.32;100.00;100303.41;5021053;28;20141;-77
2023/07/22 03:57:35;;;;;;;10.75;9.18;;;;;;;13.34;100.00;100295.34;5006976;28;20069;-75
2023/07/22 04:00:05;;;;;;;11.02;9.45;;;;;;;13.27;100.00;100301.94;5010552;28;20050;-77
2023/07/22 04:02:40;;;;;;;10.63;9.27;;;;;;;13.18;100.00;100303.38;5006722;28;20049;-78
2023/07/22 04:05:10;;;;;;;10.57;8.80;;;;;;;13.23;100.00;100295.94;5025578;28;20069;-77
2023/07/22 04:07:38;;;;;;;10.70;8.88;;;;;;;13.24;100.00;100294.16;5015038;28;20057;-76
2023/07/22 04:10:08;;;;;;;17.00;9.57;;;;;;;13.23;100.00;100301.25;5003276;28;20520;-74
2023/07/22 04:12:36;;;;;;;11.18;9.98;;;;;;;13.16;100.00;100299.94;4999162;28;20034;-76
2023/07/22 04:15:09;;;;;;;12.60;9.85;;;;;;;13.11;100.00;100303.78;5009210;28;20053;-75
2023/07/22 04:17:37;;;;;;;12.43;10.38;;;;;;;13.03;100.00;100301.56;5010138;28;20125;-75
2023/07/22 04:20:11;;;;;;;12.23;10.05;;;;;;;12.99;100.00;100292.91;5023889;28;20050;-73
2023/07/22 04:22:39;;;;;;;15.43;10.20;;;;;;;13.03;100.00;100296.25;5023856;28;20041;-76
2023/07/22 04:25:08;;;;;;;10.45;9.35;;;;;;;13.05;100.00;100290.84;5014472;28;20425;-76
2023/07/22 04:27:37;;;;;;;11.23;9.50;;;;;;;13.19;100.00;100298.91;5027150;28;20490;-76
2023/07/22 04:30:09;;;;;;;13.07;9.60;;;;;;;13.23;100.00;100303.06;5011598;28;20493;-73
2023/07/22 04:32:39;;;;;;;11.55;9.55;;;;;;;13.24;100.00;100296.81;5002398;28;20045;-76
2023/07/22 04:35:10;;;;;;;13.43;9.63;;;;;;;13.28;100.00;100314.31;5010556;28;20046;-76
2023/07/22 04:37:41;;;;;;;;;;;;;;;13.29;100.00;100310.69;5022752;28;20541;-73
2023/07/22 04:40:13;;;;;;;10.52;9.43;;;;;;;13.31;100.00;100314.97;5013054;28;19932;-75
2023/07/22 04:42:46;;;;;;;17.00;10.40;;;;;;;13.29;100.00;100306.22;5008468;28;20285;-77
2023/07/22 04:45:13;;;;;;;12.40;9.88;;;;;;;13.29;100.00;100316.00;5009752;28;20050;-77
2023/07/22 04:47:44;;;;;;;13.68;10.50;;;;;;;13.32;100.00;100318.50;5009542;28;20083;-77
2023/07/22 04:50:14;;;;;;;11.85;9.55;;;;;;;13.31;100.00;100314.13;5004279;28;20045;-78
2023/07/22 04:52:44;;;;;;;14.20;10.47;;;;;;;13.38;100.00;100310.13;5005788;28;20040;-78
2023/07/22 04:55:14;;;;;;;13.27;11.25;;;;;;;13.31;100.00;100295.50;5005391;28;20486;-77
2023/07/22 04:57:44;;;;;;;14.43;11.80;;;;;;;13.47;100.00;100316.72;5010550;28;20100;-77
2023/07/22 05:00:16;;;;;;;14.30;10.75;;;;;;;13.42;100.00;100308.16;5022397;28;20052;-78
2023/07/22 05:02:45;;;;;;;16.75;11.80;;;;;;;13.50;100.00;100321.88;5006888;28;20042;-77
2023/07/22 05:05:14;;;;;;;12.90;10.80;;;;;;;13.55;100.00;100312.63;5020633;28;20093;-77
2023/07/22 05:07:43;;;;;;;14.82;11.20;;;;;;;13.64;100.00;100312.09;5010779;28;20057;-78
2023/07/22 05:10:12;;;;;;;12.30;10.82;;;;;;;13.79;100.00;100312.09;5004201;28;20046;-77
2023/07/22 05:12:40;;;;;;;15.02;13.43;;;;;;;13.93;100.00;100312.09;4972242;28;20049;-78
2023/07/22 05:15:11;;;;;;;18.10;14.20;;;;;;;14.05;100.00;100312.19;4992807;28;20545;-78
2023/07/22 05:17:39;;;;;;;19.20;14.70;;;;;;;14.15;100.00;100312.50;4993100;28;20065;-77
2023/07/22 05:20:09;;;;;;;18.55;14.30;;;;;;;14.22;100.00;100307.63;5007989;28;20078;-78
2023/07/22 05:22:44;;;;;;;;;;;;;;;14.35;100.00;100311.19;5017570;28;20576;-77
2023/07/22 05:25:12;;;;;;;17.42;14.82;;;;;;;14.39;100.00;100305.59;5004767;28;20390;-79
2023/07/22 05:27:41;;;;;;;20.63;16.20;;;;;;;14.49;100.00;100307.69;5017729;28;20563;-78
2023/07/22 05:30:09;;;;;;;20.50;15.88;;;;;;;14.60;100.00;100314.06;5008618;28;20056;-78
2023/07/22 05:32:53;;;;;;;17.90;15.90;;;;;;;14.72;100.00;100317.72;5005146;28;20050;-78
2023/07/22 05:35:21;;;;;;;;;;;;;;;14.79;100.00;100321.72;4981142;28;20417;-78
2023/07/22 05:37:50;;;;;;;18.90;15.30;;;;;;;14.83;100.00;100328.53;5010617;28;19925;-77
2023/07/22 05:40:19;;;;;;;18.02;14.95;;;;;;;14.83;100.00;100333.00;5010794;28;20422;-78
2023/07/22 05:42:47;;;;;;;16.45;13.02;;;;;;;14.86;100.00;100327.47;5005144;28;20054;-78
2023/07/22 05:45:16;;;;;;;15.80;13.00;;;;;;;14.88;100.00;100323.75;4996637;28;20141;-76
2023/07/22 05:47:44;;;;;;;14.95;12.95;;;;;;;14.89;100.00;100328.13;5004477;28;20077;-76
2023/07/22 05:50:12;;;;;;;17.08;12.82;;;;;;;14.84;100.00;100330.25;5007834;28;20133;-76
2023/07/22 05:52:40;;;;;;;16.25;13.23;;;;;;;14.87;100.00;100337.19;5000531;28;20499;-76
2023/07/22 05:55:10;;;;;;;17.98;12.65;;;;;;;14.84;100.00;100326.72;5011520;28;20046;-77
2023/07/22 05:57:38;;;;;;;17.25;12.98;;;;;;;14.98;100.00;100335.50;5009872;28;20049;-76
2023/07/22 06:00:08;;;;;;;17.13;13.52;;;;;;;15.07;100.00;100334.06;5023599;28;20522;-76
2023/07/22 06:02:43;;;;;;;16.52;12.88;;;;;;;15.15;100.00;100325.53;4986939;28;20179;-76
2023/07/22 06:05:12;;;;;;;18.33;14.20;;;;;;;15.20;100.00;100329.63;5014228;28;20117;-77
2023/07/22 06:07:40;;;;;;;14.35;12.85;;;;;;;15.15;100.00;100336.22;5010892;28;20506;-75
2023/07/22 06:10:11;;;;;;;17.58;13.80;;;;;;;15.18;100.00;100333.34;4992878;28;20124;-76
2023/07/22 06:12:41;;;;;;;17.20;13.73;;;;;;;15.28;100.00;100331.75;5001980;28;20045;-77
2023/07/22 06:15:09;;;;;;;;;;;;;;;15.38;100.00;100331.06;4993675;28;20569;-76
2023/07/22 06:17:39;;;;;;;18.15;13.73;;;;;;;15.52;100.00;100334.59;4991935;28;20305;-77
2023/07/22 06:20:09;;;;;;;15.63;12.85;;;;;;;15.64;100.00;100325.78;5011811;28;20056;-77
2023/07/22 06:22:38;;;;;;;15.20;12.02;;;;;;;15.91;100.00;100328.31;5008362;28;20045;-77
2023/07/22 06:25:11;;;;;;;14.23;11.93;;;;;;;16.18;100.00;100329.06;4983315;28;20105;-77
2023/07/22 06:27:41;;;;;;;14.13;11.52;;;;;;;16.54;100.00;100330.91;5020988;28;20041;-77
2023/07/22 06:30:10;;;;;;;13.55;11.60;;;;;;;16.67;100.00;100317.53;5013734;28;20125;-76
2023/07/22 06:32:40;;;;;;;15.00;11.57;;;;;;;16.96;100.00;100326.09;5005945;28;20046;-76
2023/07/22 06:35:09;;;;;;;13.88;10.85;;;;;;;17.12;100.00;100332.84;5012520;28;20045;-76
2023/07/22 06:37:37;;;;;;;12.35;10.63;;;;;;;17.54;100.00;100334.09;5017268;28;20777;-76
2023/07/22 06:40:07;;;;;;;14.07;11.52;;;;;;;17.73;100.00;100335.38;5020484;28;20050;-75
2023/07/22 06:42:38;;;;;;;12.20;10.60;;;;;;;18.09;100.00;100348.59;5007483;28;20149;-75
2023/07/22 06:45:07;;;;;;;14.98;11.73;;;;;;;18.22;100.00;100351.16;5019559;28;20050;-76
2023/07/22 06:47:36;;;;;;;11.88;10.68;;;;;;;18.16;100.00;100340.91;5013739;28;20112;-76
2023/07/22 06:50:05;;;;;;;14.73;10.52;;;;;;;17.94;100.00;100347.13;4996079;28;20045;-75
2023/07/22 06:52:33;;;;;;;14.40;11.57;;;;;;;17.81;100.00;100354.38;5025951;28;20573;-76
2023/07/22 06:55:02;;;;;;;12.15;10.85;;;;;;;17.76;100.00;100351.22;5013421;28;20045;-76
2023/07/22 06:57:30;;;;;;;10.85;9.55;;;;;;;17.81;100.00;100339.16;5010569;28;20045;-74
2023/07/22 06:59:59;;;;;;;11.60;10.07;;;;;;;18.03;100.00;100343.69;5011469;28;20050;-76
2023/07/22 07:02:28;;;;;;;14.10;11.18;;;;;;;18.00;100.00;100349.28;4988276;28;20411;-76
2023/07/22 07:04:55;;;;;;;15.63;11.35;;;;;;;17.84;100.00;100352.31;4994360;28;20437;-76
2023/07/22 07:07:27;;;;;;;13.93;10.75;;;;;;;18.06;100.00;100351.50;5011527;28;20057;-76
2023/07/22 07:09:56;;;;;;;14.80;10.68;;;;;;;18.16;100.00;100346.25;4998344;28;20045;-75
2023/07/22 07:12:24;;;;;;;14.88;11.23;;;;;;;18.11;100.00;100332.34;4994234;28;20042;-76
2023/07/22 07:14:53;;;;;;;15.57;10.20;;;;;;;18.59;100.00;100354.41;5031245;28;20524;-75
2023/07/22 07:17:23;;;;;;;11.30;10.05;;;;;;;19.11;100.00;100340.28;5014183;28;20034;-74
2023/07/22 07:19:51;;;;;;;11.80;9.68;;;;;;;19.59;100.00;100345.22;5014897;28;20060;-75
2023/07/22 07:22:18;;;;;;;13.15;9.65;;;;;;;19.74;100.00;100343.91;4965754;28;20100;-76
2023/07/22 07:24:46;;;;;;;13.25;9.43;;;;;;;19.85;100.00;100341.13;4992282;28;20502;-76
2023/07/22 07:27:14;;;;;;;13.23;8.75;;;;;;;20.16;100.00;100349.22;4991856;28;20076;-76
2023/07/22 07:29:42;;;;;;;10.95;9.52;;;;;;;20.43;100.00;100340.59;5013374;28;20057;-76
2023/07/22 07:32:23;;;;;;;10.95;8.90;;;;;;;20.81;100.00;100339.84;5017731;28;20115;-75
2023/07/22 07:34:55;;;;;;;8.93;7.47;;;;;;;20.98;97.56;100341.84;5004539;28;20421;-75
2023/07/22 07:37:24;;;;;;;11.88;6.78;;;;;;;21.20;94.39;100349.72;5010500;28;20041;-75
2023/07/22 07:39:52;;;;;;;6.67;5.70;;;;;;;21.48;79.98;100348.00;4995867;28;20148;-75
2023/07/22 07:42:20;;;;;;;7.20;5.13;;;;;;;21.91;63.96;100350.19;5005868;28;20707;-74
2023/07/22 07:44:48;;;;;;;7.35;4.88;;;;;;;22.21;62.04;100353.69;5008155;28;20038;-75
2023/07/22 07:47:17;;;;;;;5.72;5.00;;;;;;;22.59;61.16;100345.44;5012796;28;20166;-75
2023/07/22 07:49:45;;;;;;;6.47;5.45;;;;;;;22.60;58.04;100352.53;5009541;28;20051;-75
2023/07/22 07:52:15;;;;;;;8.00;5.93;;;;;;;22.00;60.23;100341.28;5005398;28;20038;-74
2023/07/22 07:54:44;;;;;;;9.65;6.22;;;;;;;21.46;59.69;100351.81;5004303;28;20132;-75
2023/07/22 07:57:13;;;;;;;6.65;5.60;;;;;;;21.49;65.68;100354.25;5008005;28;20061;-74
2023/07/22 07:59:41;;;;;;;5.90;5.20;;;;;;;21.84;64.82;100338.31;4996886;28;20251;-76
2023/07/22 08:02:11;;;;;;;6.05;5.40;;;;;;;22.45;59.38;100351.31;5005024;28;20045;-74
2023/07/22 08:04:39;;;;;;;6.20;5.30;;;;;;;22.60;58.61;100355.22;4992341;28;20033;-75
2023/07/22 08:07:08;;;;;;;8.10;6.07;;;;;;;22.48;57.83;100342.94;5013793;28;20529;-75
2023/07/22 08:09:38;;;;;;;11.15;5.95;;;;;;;22.14;60.65;100345.34;4991009;28;20038;-74
2023/07/22 08:12:10;;;;;;;9.50;6.10;;;;;;;21.98;62.74;100351.31;5011412;28;20046;-76
2023/07/22 08:14:39;;;;;;;;;;;;;;;21.76;65.02;100350.78;5003837;28;20049;-75
2023/07/22 08:17:09;;;;;;;6.88;5.47;;;;;;;21.35;65.04;100350.13;5014251;28;19955;-75
2023/07/22 08:19:40;;;;;;;8.68;6.22;;;;;;;21.03;67.93;100350.38;4996913;28;20046;-73
2023/07/22 08:22:08;;;;;;;;;;;;;;;20.96;68.66;100339.28;4997438;28;20053;-74
2023/07/22 08:24:36;;;;;;;6.97;5.50;;;;;;;20.65;66.11;100333.16;5001878;28;19921;-74
2023/07/22 08:27:06;;;;;;;8.52;5.13;;;;;;;20.90;71.94;100347.94;5009880;28;20640;-74
2023/07/22 08:29:34;;;;;;;8.15;5.50;;;;;;;21.44;70.67;100343.88;5010498;28;20062;-74
2023/07/22 08:32:02;;;;;;;6.55;5.05;;;;;;;21.81;66.90;100340.44;5009934;28;20056;-75
2023/07/22 08:34:30;;;;;;;6.78;4.97;;;;;;;22.30;67.53;100353.66;4986608;28;20041;-74
2023/07/22 08:36:59;;;;;;;6.90;4.88;;;;;;;22.80;61.62;100345.22;5006080;28;20141;-75
2023/07/22 08:39:27;;;;;;;4.88;4.30;;;;;;;23.09;61.68;100353.09;5011160;28;20049;-75
2023/07/22 08:41:56;;;;;;;7.65;5.00;;;;;;;23.12;59.92;100330.34;5013196;28;20049;-75
2023/07/22 08:44:35;;;;;;;7.53;5.70;;;;;;;22.29;61.47;100343.88;4997452;28;20047;-75
2023/07/22 08:47:05;;;;;;;5.70;5.10;;;;;;;21.75;67.65;100338.31;5028659;28;20050;-74
2023/07/22 08:49:33;;;;;;;4.30;3.83;;;;;;;21.87;67.00;100324.53;5010912;28;20428;-76
2023/07/22 08:52:02;;;;;;;9.05;4.53;;;;;;;22.36;60.54;100330.63;5010284;28;20581;-74
2023/07/22 08:54:33;;;;;;;6.13;4.30;;;;;;;22.61;58.71;100337.19;4998979;28;20049;-74
2023/07/22 08:57:03;;;;;;;5.50;4.90;;;;;;;22.46;59.47;100336.84;5014967;28;20053;-75
2023/07/22 08:59:33;;;;;;;6.78;4.60;;;;;;;22.38;59.77;100328.63;5009327;28;20053;-74
2023/07/22 09:02:02;;;;;;;7.20;4.50;;;;;;;22.25;61.66;100322.72;5024921;28;20041;-74
2023/07/22 09:04:30;;;;;;;7.88;4.65;;;;;;;22.18;59.19;100322.50;4987314;28;20050;-75
2023/07/22 09:07:01;;;;;;;7.22;4.50;;;;;;;22.05;54.90;100325.50;4990638;28;20068;-74
2023/07/22 09:09:29;;;;;;;7.07;4.50;;;;;;;22.24;54.61;100326.41;5010675;28;20076;-73
2023/07/22 09:11:58;;;;;;;5.90;4.38;;;;;;;22.58;54.72;100327.53;4974395;28;20077;-73
2023/07/22 09:14:27;;;;;;;4.75;3.80;;;;;;;22.91;55.96;100323.38;5001891;28;20512;-75
2023/07/22 09:17:09;;;;;;;4.40;3.75;;;;;;;23.45;52.30;100319.66;5009968;28;20133;-74
2023/07/22 09:19:37;;;;;;;4.70;4.20;;;;;;;23.74;50.58;100324.81;5007734;28;20129;-75
2023/07/22 09:22:06;;;;;;;4.85;4.00;;;;;;;23.93;49.16;100312.06;5028793;28;20537;-74
2023/07/22 09:24:36;;;;;;;9.82;4.63;;;;;;;23.72;48.03;100321.44;5001246;28;20130;-74
2023/07/22 09:27:05;;;;;;;7.53;4.18;;;;;;;23.26;48.10;100325.25;5007738;28;20041;-74
2023/07/22 09:29:37;;;;;;;6.85;4.25;;;;;;;22.59;48.69;100329.22;4992572;28;20052;-75
2023/07/22 09:32:08;;;;;;;5.20;4.32;;;;;;;22.37;49.81;100326.91;5012777;28;20054;-73
2023/07/22 09:34:36;;;;;;;;;;;;;;;22.44;49.72;100319.94;5007671;28;20156;-75
2023/07/22 09:37:05;;;;;;;5.35;4.07;;;;;;;22.30;51.17;100320.44;5015427;28;19925;-75
2023/07/22 09:39:34;;;;;;;6.15;4.32;;;;;;;22.24;50.51;100318.31;5009489;28;20042;-75
2023/07/22 09:42:04;;;;;;;8.50;4.25;;;;;;;22.23;52.40;100311.22;5014452;28;20064;-75
2023/07/22 09:44:37;;;;;;;7.40;4.80;;;;;;;22.38;52.33;100313.28;5007812;28;20037;-75
2023/07/22 09:47:09;;;;;;;5.70;4.20;;;;;;;22.55;50.76;100313.47;5012961;28;20047;-75
2023/07/22 09:49:42;;;;;;;5.30;4.30;;;;;;;22.63;49.13;100300.09;5010815;28;20042;-75
2023/07/22 09:52:13;;;;;;;4.70;4.13;;;;;;;22.85;50.86;100304.22;5011000;28;20081;-75
2023/07/22 09:54:48;;;;;;;5.38;3.90;;;;;;;23.22;48.22;100298.69;4989670;28;20076;-75
2023/07/22 09:57:17;;;;;;;7.25;3.78;;;;;;;23.69;46.76;100299.25;5029118;28;20039;-76
2023/07/22 09:59:50;;;;;;;7.45;3.85;;;;;;;23.98;45.19;100304.34;5014346;28;20050;-75
2023/07/22 10:02:23;;;;;;;6.50;3.95;;;;;;;23.61;44.51;100291.94;5016691;28;20089;-75
2023/07/22 10:04:53;;;;;;;5.78;3.90;;;;;;;23.27;45.19;100299.09;5003366;28;20177;-74
2023/07/22 10:07:24;;;;;;;7.43;4.05;;;;;;;23.02;45.37;100296.13;5027555;28;20061;-76
2023/07/22 10:09:56;;;;;;;5.70;3.75;;;;;;;23.03;46.17;100292.44;5023303;28;20045;-74
2023/07/22 10:12:25;;;;;;;4.53;3.95;;;;;;;22.90;46.45;100288.44;5007905;28;20052;-75
2023/07/22 10:14:54;;;;;;;6.03;4.18;;;;;;;22.68;46.92;100285.13;5008580;28;20103;-75
2023/07/22 10:17:24;;;;;;;5.80;3.63;;;;;;;22.77;49.04;100288.81;5010222;28;20077;-77
2023/07/22 10:19:54;;;;;;;6.13;3.80;;;;;;;22.92;48.34;100276.47;5023062;28;20058;-76
2023/07/22 10:22:22;;;;;;;5.65;4.05;;;;;;;22.83;48.52;100271.97;5018448;28;20114;-74
2023/07/22 10:24:53;;;;;;;6.30;4.20;;;;;;;22.72;48.28;100286.53;4994814;28;20049;-75
2023/07/22 10:27:23;;;;;;;8.40;3.90;;;;;;;22.58;48.52;100283.50;5030853;28;20116;-76
2023/07/22 10:29:52;;;;;;;8.50;3.93;;;;;;;22.64;49.30;100286.44;5002663;28;20058;-74
2023/07/22 10:32:23;;;;;;;5.65;4.22;;;;;;;22.89;47.91;100284.03;5021662;28;20038;-75
2023/07/22 10:34:51;;;;;;;7.93;3.90;;;;;;;23.02;47.74;100268.28;5014444;28;20046;-75
2023/07/22 10:37:24;;;;;;;7.63;4.60;;;;;;;22.97;47.71;100281.44;5016939;28;20042;-75
2023/07/22 10:39:52;;;;;;;8.27;4.45;;;;;;;23.19;49.21;100263.88;5025194;28;20112;-75
2023/07/22 10:42:26;;;;;;;6.75;3.85;;;;;;;23.14;47.44;100263.53;4983036;28;20141;-75
2023/07/22 10:44:54;;;;;;;7.40;3.92;;;;;;;22.79;46.98;100261.66;5008964;28;20121;-75
2023/07/22 10:47:37;;;;;;;4.90;3.40;;;;;;;22.85;47.61;100244.84;4996637;28;20058;-75
2023/07/22 10:50:10;;;;;;;5.07;4.00;;;;;;;22.89;47.32;100251.63;4991079;28;20501;-74
2023/07/22 10:52:44;;;;;;;4.90;4.10;;;;;;;23.07;46.13;100257.88;5013898;28;20038;-74
2023/07/22 10:55:16;;;;;;;6.78;4.90;;;;;;;23.35;45.52;100254.06;5001878;28;20069;-74
2023/07/22 10:57:51;;;;;;;7.15;4.47;;;;;;;23.63;45.65;100259.34;5018022;28;20060;-75
2023/07/22 11:00:20;;;;;;;6.38;4.18;;;;;;;23.58;45.28;100248.16;5017919;28;20064;-75
2023/07/22 11:03:12;;;;;;;12.10;4.68;;;;;;;23.36;45.89;100244.09;5015718;28;20042;-75
2023/07/22 11:05:55;;;;;;;5.93;3.83;;;;;;;23.28;44.41;100244.03;5003314;28;20053;-74
2023/07/22 11:08:37;;;;;;;4.57;3.65;;;;;;;23.37;44.46;100237.69;4992955;28;20140;-76
2023/07/22 11:11:06;;;;;;;5.25;3.53;;;;;;;23.50;42.73;100237.25;5028554;28;20473;-74
2023/07/22 11:13:39;;;;;;;3.95;3.28;;;;;;;23.32;41.77;100230.03;5011114;28;20041;-75
2023/07/22 11:16:12;;;;;;;4.20;3.45;;;;;;;23.30;42.31;100231.19;5006525;28;20046;-75
2023/07/22 11:18:42;;;;;;;4.28;3.28;;;;;;;23.26;41.71;100227.13;5017443;28;20080;-76
2023/07/22 11:21:12;;;;;;;6.97;3.45;;;;;;;23.26;41.15;100229.84;5031073;28;20364;-74
2023/07/22 11:23:40;;;;;;;6.38;3.72;;;;;;;23.39;41.57;100227.56;5013790;28;20049;-75
2023/07/22 11:26:08;;;;;;;4.57;3.45;;;;;;;23.48;41.92;100214.94;5024668;28;20092;-73
2023/07/22 11:28:36;;;;;;;4.07;3.65;;;;;;;23.60;42.61;100216.44;5020949;28;20400;-75